createdAt,value
2019-05-11T00:01:49.114Z,78.90
2019-05-11T00:04:19.484Z,78.90
2019-05-11T00:06:49.584Z,78.80
2019-05-11T00:09:19.310Z,78.90
2019-05-11T00:11:49.891Z,78.90
2019-05-11T00:14:20.267Z,79.20
2019-05-11T00:16:50.269Z,78.90
2019-05-11T00:19:20.628Z,78.90
2019-05-11T00:21:58.431Z,78.50
2019-05-11T00:24:29.662Z,78.50
2019-05-11T00:26:59.698Z,78.70
2019-05-11T00:29:29.462Z,79.00
2019-05-11T00:31:59.800Z,78.60
2019-05-11T00:34:29.896Z,80.80
2019-05-11T00:37:00.875Z,80.90
2019-05-11T00:39:31.216Z,80.10
2019-05-11T00:42:01.647Z,79.90
2019-05-11T00:44:31.813Z,79.40
2019-05-11T00:47:01.726Z,79.30
2019-05-11T00:49:32.067Z,84.00
2019-05-11T00:52:01.703Z,91.70
2019-05-11T00:54:32.301Z,94.60
2019-05-11T00:57:02.425Z,88.10
2019-05-11T00:59:33.184Z,83.20
2019-05-11T01:02:03.252Z,81.40
2019-05-11T01:04:36.011Z,80.90
2019-05-11T01:07:06.026Z,80.50
2019-05-11T01:09:37.026Z,80.70
2019-05-11T01:12:07.099Z,80.40
2019-05-11T01:14:57.495Z,80.70
2019-05-11T01:17:27.132Z,80.60
2019-05-11T01:20:00.674Z,80.40
2019-05-11T01:22:30.531Z,80.10
2019-05-11T01:25:06.639Z,80.20
2019-05-11T01:27:36.847Z,80.00
2019-05-11T01:30:06.811Z,82.40
2019-05-11T01:32:37.122Z,81.00
2019-05-11T01:35:07.148Z,81.00
2019-05-11T01:37:41.641Z,86.30
2019-05-11T01:40:11.877Z,86.50
2019-05-11T01:42:42.396Z,88.00
2019-05-11T01:45:12.695Z,84.30
2019-05-11T01:47:44.148Z,82.50
2019-05-11T01:50:14.398Z,81.90
2019-05-11T01:52:44.886Z,81.30
2019-05-11T01:55:15.003Z,83.80
2019-05-11T01:57:45.235Z,85.60
2019-05-11T02:00:15.003Z,85.70
2019-05-11T02:02:45.317Z,83.10
2019-05-11T02:05:33.720Z,82.40
2019-05-11T02:08:03.444Z,81.40
2019-05-11T02:10:33.237Z,81.00
2019-05-11T02:13:03.091Z,80.90
2019-05-11T02:15:33.932Z,80.70
2019-05-11T02:18:03.908Z,82.80
2019-05-11T02:20:33.608Z,81.50
2019-05-11T02:23:04.610Z,84.30
2019-05-11T02:25:34.770Z,84.40
2019-05-11T02:28:04.654Z,83.70
2019-05-11T02:30:34.546Z,86.70
2019-05-11T02:33:05.049Z,86.00
2019-05-11T02:35:35.298Z,83.30
2019-05-11T02:38:05.283Z,82.50
2019-05-11T02:40:34.922Z,82.30
2019-05-11T02:43:04.704Z,81.60
2019-05-11T02:45:42.798Z,81.40
2019-05-11T02:48:12.822Z,81.60
2019-05-11T02:50:44.390Z,81.60
2019-05-11T02:53:14.073Z,81.30
2019-05-11T02:55:46.087Z,82.00
2019-05-11T02:58:16.462Z,82.40
2019-05-11T03:00:47.424Z,82.10
2019-05-11T03:03:17.461Z,81.60
2019-05-11T03:05:47.527Z,81.60
2019-05-11T03:08:17.681Z,81.60
2019-05-11T03:10:53.516Z,81.50
2019-05-11T03:13:23.319Z,81.60
2019-05-11T03:15:53.604Z,88.10
2019-05-11T03:18:23.594Z,93.70
2019-05-11T03:20:53.565Z,90.50
2019-05-11T03:23:23.827Z,87.10
2019-05-11T03:25:57.605Z,87.20
2019-05-11T03:28:28.086Z,83.90
2019-05-11T03:30:58.219Z,83.20
2019-05-11T03:33:28.318Z,83.00
2019-05-11T03:35:58.738Z,82.80
2019-05-11T03:38:29.099Z,82.00
2019-05-11T03:40:59.522Z,82.10
2019-05-11T03:43:29.842Z,82.40
2019-05-11T03:46:00.195Z,82.60
2019-05-11T03:48:30.197Z,82.40
2019-05-11T03:51:00.052Z,87.30
2019-05-11T03:53:32.690Z,92.60
2019-05-11T03:56:02.808Z,93.50
2019-05-11T03:58:32.832Z,87.40
2019-05-11T04:01:03.479Z,85.40
2019-05-11T04:03:34.331Z,84.00
2019-05-11T04:06:06.623Z,83.90
2019-05-11T04:08:36.680Z,91.30
2019-05-11T04:11:06.769Z,89.10
2019-05-11T04:13:36.832Z,91.40
2019-05-11T04:16:07.218Z,88.50
2019-05-11T04:18:37.905Z,87.10
2019-05-11T04:21:07.632Z,86.70
2019-05-11T04:23:37.977Z,93.10
2019-05-11T04:26:08.424Z,94.20
2019-05-11T04:28:38.816Z,92.10
2019-05-11T04:31:09.619Z,90.50
2019-05-11T04:33:39.473Z,93.60
2019-05-11T04:36:09.790Z,95.30
2019-05-11T04:38:40.377Z,96.10
2019-05-11T04:41:10.637Z,95.30
2019-05-11T04:43:40.890Z,89.00
2019-05-11T04:46:11.369Z,87.50
2019-05-11T04:48:41.335Z,86.00
2019-05-11T04:51:11.168Z,87.20
2019-05-11T04:53:41.015Z,84.90
2019-05-11T04:56:11.393Z,85.60
2019-05-11T04:58:41.208Z,91.60
2019-05-11T05:01:11.828Z,93.30
2019-05-11T05:03:47.352Z,92.80
2019-05-11T05:06:28.483Z,88.10
2019-05-11T05:08:45.374Z,86.10
2019-05-11T05:11:20.021Z,89.90
2019-05-11T05:13:53.276Z,87.40
2019-05-11T05:16:21.732Z,87.20
2019-05-11T05:18:52.364Z,84.00
2019-05-11T05:21:23.083Z,84.00
2019-05-11T05:23:53.845Z,87.60
2019-05-11T05:26:23.905Z,92.40
2019-05-11T05:28:54.176Z,87.60
2019-05-11T05:31:24.665Z,90.60
2019-05-11T05:33:56.253Z,90.70
2019-05-11T05:36:28.858Z,89.60
2019-05-11T05:38:58.910Z,88.20
2019-05-11T05:41:29.590Z,91.80
2019-05-11T05:43:59.879Z,88.90
2019-05-11T05:46:31.084Z,89.80
2019-05-11T05:49:01.305Z,89.60
2019-05-11T05:51:30.948Z,91.30
2019-05-11T05:54:01.112Z,91.80
2019-05-11T05:56:31.627Z,89.40
2019-05-11T05:59:01.399Z,89.30
2019-05-11T06:01:31.555Z,90.00
2019-05-11T06:04:01.272Z,89.40
2019-05-11T06:06:31.422Z,90.00
2019-05-11T06:09:01.609Z,89.00
2019-05-11T06:11:31.618Z,88.20
2019-05-11T06:14:01.487Z,89.10
2019-05-11T06:16:31.959Z,88.00
2019-05-11T06:19:02.557Z,88.00
2019-05-11T06:21:32.731Z,89.20
2019-05-11T06:24:06.757Z,88.70
2019-05-11T06:26:36.008Z,86.10
2019-05-11T06:29:05.811Z,86.30
2019-05-11T06:31:49.108Z,89.00
2019-05-11T06:34:19.553Z,81.40
2019-05-11T06:36:49.776Z,85.80
2019-05-11T06:39:19.464Z,82.20
2019-05-11T06:41:49.618Z,84.70
2019-05-11T06:44:19.666Z,82.70
2019-05-11T06:46:49.701Z,83.10
2019-05-11T06:49:19.160Z,78.40
2019-05-11T06:51:55.201Z,80.30
2019-05-11T06:54:25.435Z,78.60
2019-05-11T06:56:55.715Z,80.10
2019-05-11T06:59:26.105Z,79.20
2019-05-11T07:01:56.520Z,77.30
2019-05-11T07:04:26.833Z,77.10
2019-05-11T07:06:57.011Z,75.70
2019-05-11T07:09:27.487Z,81.10
2019-05-11T07:11:58.314Z,72.40
2019-05-11T07:14:28.284Z,74.20
2019-05-11T07:16:58.335Z,74.50
2019-05-11T07:19:28.948Z,70.90
2019-05-11T07:21:59.387Z,75.20
2019-05-11T07:24:29.759Z,74.40
2019-05-11T07:26:59.896Z,75.50
2019-05-11T07:29:30.158Z,74.90
2019-05-11T07:32:08.162Z,70.50
2019-05-11T07:34:38.333Z,72.90
2019-05-11T07:37:09.102Z,76.00
2019-05-11T07:39:39.483Z,71.70
2019-05-11T07:42:09.266Z,73.50
2019-05-11T07:44:44.627Z,70.30
2019-05-11T07:47:14.723Z,66.40
2019-05-11T07:52:29.782Z,66.20
2019-05-11T07:55:00.727Z,64.10
2019-05-11T07:57:48.136Z,65.80
2019-05-11T08:00:18.741Z,64.70
2019-05-11T08:02:49.392Z,69.30
2019-05-11T08:05:19.359Z,67.70
2019-05-11T08:07:49.914Z,67.40
2019-05-11T08:10:20.391Z,67.80
2019-05-11T08:12:50.194Z,64.80
2019-05-11T08:15:19.916Z,65.40
2019-05-11T08:17:49.973Z,64.60
2019-05-11T08:20:19.674Z,65.00
2019-05-11T08:22:50.045Z,61.00
2019-05-11T08:25:20.120Z,65.90
2019-05-11T08:27:50.938Z,67.90
2019-05-11T08:30:23.635Z,64.70
2019-05-11T08:32:54.398Z,59.40
2019-05-11T08:35:27.723Z,66.10
2019-05-11T08:37:58.125Z,67.00
2019-05-11T08:40:28.823Z,60.00
2019-05-11T08:42:58.829Z,62.40
2019-05-11T08:45:32.270Z,66.30
2019-05-11T08:48:02.402Z,67.10
2019-05-11T08:50:32.152Z,67.90
2019-05-11T08:53:02.023Z,63.80
2019-05-11T08:55:32.410Z,70.20
2019-05-11T08:58:04.047Z,62.10
2019-05-11T09:00:33.907Z,59.90
2019-05-11T09:03:05.058Z,62.00
2019-05-11T09:05:35.387Z,69.10
2019-05-11T09:08:05.478Z,57.50
2019-05-11T09:10:37.606Z,62.70
2019-05-11T09:13:08.068Z,59.50
2019-05-11T09:15:40.721Z,56.60
2019-05-11T09:18:11.566Z,61.40
2019-05-11T09:20:48.547Z,62.60
2019-05-11T09:23:33.427Z,57.70
2019-05-11T09:25:50.165Z,58.40
2019-05-11T09:28:21.038Z,57.60
2019-05-11T09:30:51.130Z,58.90
2019-05-11T09:33:21.250Z,62.00
2019-05-11T09:35:53.484Z,61.90
2019-05-11T09:38:22.796Z,60.90
2019-05-11T09:40:59.199Z,62.50
2019-05-11T09:43:32.515Z,64.10
2019-05-11T09:46:03.233Z,58.80
2019-05-11T09:48:33.644Z,60.10
2019-05-11T09:51:03.412Z,58.00
2019-05-11T09:53:33.768Z,64.70
2019-05-11T09:56:03.636Z,62.00
2019-05-11T09:58:34.012Z,65.10
2019-05-11T10:01:04.989Z,62.90
2019-05-11T10:03:35.101Z,58.60
2019-05-11T10:06:05.150Z,69.60
2019-05-11T10:08:35.347Z,60.80
2019-05-11T10:11:08.179Z,61.10
2019-05-11T10:13:38.424Z,60.10
2019-05-11T10:16:10.723Z,61.70
2019-05-11T10:18:41.547Z,59.60
2019-05-11T10:21:13.850Z,58.40
2019-05-11T10:23:49.631Z,54.30
2019-05-11T10:26:21.296Z,63.20
2019-05-11T10:28:51.709Z,58.80
2019-05-11T10:31:21.850Z,66.30
2019-05-11T10:33:52.242Z,63.20
2019-05-11T10:36:22.559Z,60.10
2019-05-11T10:38:58.631Z,59.00
2019-05-11T10:41:28.426Z,58.50
2019-05-11T10:44:02.329Z,59.40
2019-05-11T10:46:32.955Z,64.90
2019-05-11T10:49:03.641Z,64.20
2019-05-11T10:51:34.568Z,62.90
2019-05-11T10:54:04.912Z,62.40
2019-05-11T10:56:35.891Z,59.80
2019-05-11T10:59:07.992Z,63.90
2019-05-11T11:01:38.293Z,58.30
2019-05-11T11:04:08.587Z,60.80
2019-05-11T11:06:38.981Z,60.70
2019-05-11T11:09:10.493Z,60.40
2019-05-11T11:11:40.347Z,59.50
2019-05-11T11:14:10.794Z,61.50
2019-05-11T11:16:43.032Z,56.90
2019-05-11T11:19:13.036Z,54.70
2019-05-11T11:21:43.033Z,58.50
2019-05-11T11:24:13.262Z,59.40
2019-05-11T11:26:44.122Z,62.10
2019-05-11T11:29:14.835Z,62.10
2019-05-11T11:31:44.850Z,60.40
2019-05-11T11:34:18.777Z,60.80
2019-05-11T11:36:49.109Z,61.00
2019-05-11T11:39:19.880Z,61.70
2019-05-11T11:41:51.286Z,58.60
2019-05-11T11:44:22.777Z,59.90
2019-05-11T11:46:55.735Z,66.10
2019-05-11T11:49:28.401Z,59.60
2019-05-11T11:51:59.418Z,57.80
2019-05-11T11:54:29.489Z,55.10
2019-05-11T11:56:59.507Z,59.50
2019-05-11T11:59:32.224Z,60.40
2019-05-11T12:02:03.106Z,62.50
2019-05-11T12:04:34.445Z,54.50
2019-05-11T12:07:04.970Z,60.70
2019-05-11T12:09:39.646Z,59.90
2019-05-11T12:12:09.816Z,60.80
2019-05-11T12:14:40.400Z,56.00
2019-05-11T12:17:11.253Z,59.40
2019-05-11T12:19:41.961Z,56.60
2019-05-11T12:22:12.485Z,56.40
2019-05-11T12:24:48.182Z,60.10
2019-05-11T12:27:19.943Z,61.20
2019-05-11T12:29:50.407Z,55.00
2019-05-11T12:32:27.636Z,57.60
2019-05-11T12:34:58.816Z,57.60
2019-05-11T12:37:31.022Z,61.20
2019-05-11T12:40:02.167Z,56.50
2019-05-11T12:42:32.200Z,57.20
2019-05-11T12:45:02.446Z,59.90
2019-05-11T12:47:32.626Z,57.90
2019-05-11T12:50:07.793Z,57.50
2019-05-11T12:52:39.474Z,59.50
2019-05-11T12:55:20.463Z,55.80
2019-05-11T12:57:51.934Z,57.40
2019-05-11T13:00:22.589Z,54.50
2019-05-11T13:02:53.218Z,56.50
2019-05-11T13:05:23.795Z,55.60
2019-05-11T13:07:54.655Z,60.40
2019-05-11T13:10:25.250Z,60.40
2019-05-11T13:13:02.549Z,61.40
2019-05-11T13:15:31.244Z,56.80
2019-05-11T13:18:01.634Z,63.60
2019-05-11T13:20:33.167Z,58.70
2019-05-11T13:23:03.506Z,60.50
2019-05-11T13:25:33.482Z,55.90
2019-05-11T13:28:04.998Z,60.80
2019-05-11T13:30:35.359Z,61.10
2019-05-11T13:33:05.571Z,63.20
2019-05-11T13:35:37.636Z,61.90
2019-05-11T13:38:08.762Z,58.80
2019-05-11T13:40:39.644Z,62.70
2019-05-11T13:43:10.386Z,58.80
2019-05-11T13:45:40.865Z,60.40
2019-05-11T13:48:11.854Z,59.80
2019-05-11T13:50:42.470Z,61.70
2019-05-11T13:53:12.225Z,61.90
2019-05-11T13:55:42.476Z,61.70
2019-05-11T13:58:21.127Z,61.90
2019-05-11T14:00:55.928Z,63.40
2019-05-11T14:03:27.703Z,60.20
2019-05-11T14:05:58.333Z,60.80
2019-05-11T14:08:28.834Z,60.00
2019-05-11T14:10:59.823Z,60.20
2019-05-11T14:13:29.874Z,59.90
2019-05-11T14:15:59.593Z,61.10
2019-05-11T14:18:44.738Z,63.20
2019-05-11T14:21:22.101Z,61.90
2019-05-11T14:23:52.934Z,57.30
2019-05-11T14:26:22.991Z,60.80
2019-05-11T14:28:52.817Z,63.80
2019-05-11T14:31:22.597Z,62.60
2019-05-11T14:33:52.934Z,62.70
2019-05-11T14:36:23.107Z,63.40
2019-05-11T14:38:53.345Z,61.70
2019-05-11T14:41:23.144Z,63.80
2019-05-11T14:43:54.254Z,61.40
2019-05-11T14:46:24.188Z,63.60
2019-05-11T14:48:54.428Z,61.00
2019-05-11T14:51:24.644Z,64.20
2019-05-11T14:53:59.469Z,63.10
2019-05-11T14:56:28.762Z,63.50
2019-05-11T14:58:58.771Z,63.80
2019-05-11T15:01:30.029Z,63.70
2019-05-11T15:04:00.075Z,64.90
2019-05-11T15:06:29.747Z,65.10
2019-05-11T15:09:00.764Z,65.50
2019-05-11T15:11:32.320Z,59.40
2019-05-11T15:14:04.401Z,64.80
2019-05-11T15:16:34.115Z,66.10
2019-05-11T15:19:04.659Z,65.20
2019-05-11T15:21:34.770Z,62.50
2019-05-11T15:24:04.689Z,63.30
2019-05-11T15:26:34.494Z,65.50
2019-05-11T15:29:04.206Z,66.40
2019-05-11T15:31:38.129Z,66.30
2019-05-11T15:34:08.619Z,65.70
2019-05-11T15:36:38.879Z,64.40
2019-05-11T15:39:08.940Z,64.60
2019-05-11T15:41:39.091Z,64.00
2019-05-11T15:44:11.947Z,66.30
2019-05-11T15:46:41.027Z,66.00
2019-05-11T15:49:11.397Z,64.50
2019-05-11T15:51:41.377Z,64.20
2019-05-11T15:54:11.155Z,64.00
2019-05-11T15:56:41.549Z,66.40
2019-05-11T15:59:11.754Z,65.30
2019-05-11T16:01:41.921Z,64.70
2019-05-11T16:04:11.660Z,65.80
2019-05-11T16:06:47.381Z,64.50
2019-05-11T16:09:18.397Z,63.00
2019-05-11T16:11:48.635Z,64.30
2019-05-11T16:14:18.487Z,61.60
2019-05-11T16:16:49.075Z,66.20
2019-05-11T16:19:19.334Z,67.10
2019-05-11T16:21:49.336Z,65.40
2019-05-11T16:24:19.209Z,63.00
2019-05-11T16:26:49.677Z,63.70
2019-05-11T16:29:27.885Z,67.10
2019-05-11T16:31:57.937Z,66.20
2019-05-11T16:34:28.133Z,67.20
2019-05-11T16:36:58.261Z,65.10
2019-05-11T16:39:28.342Z,65.00
2019-05-11T16:41:58.468Z,61.10
2019-05-11T16:44:28.628Z,61.90
2019-05-11T16:46:58.883Z,64.80
2019-05-11T16:49:32.373Z,68.40
2019-05-11T16:52:02.346Z,69.10
2019-05-11T16:54:32.290Z,65.00
2019-05-11T16:57:02.115Z,66.60
2019-05-11T16:59:32.481Z,67.00
2019-05-11T17:02:02.840Z,69.60
2019-05-11T17:04:35.068Z,68.20
2019-05-11T17:07:06.121Z,67.10
2019-05-11T17:09:37.836Z,66.90
2019-05-11T17:12:11.518Z,68.90
2019-05-11T17:14:58.450Z,69.10
2019-05-11T17:17:29.005Z,70.70
2019-05-11T17:19:59.057Z,67.00
2019-05-11T17:22:29.564Z,69.90
2019-05-11T17:25:02.236Z,69.80
2019-05-11T17:27:33.268Z,69.20
2019-05-11T17:30:03.273Z,65.50
2019-05-11T17:32:33.312Z,67.10
2019-05-11T17:35:03.944Z,66.50
2019-05-11T17:37:52.742Z,67.10
2019-05-11T17:40:23.647Z,65.60
2019-05-11T17:42:54.238Z,68.30
2019-05-11T17:45:25.938Z,70.40
2019-05-11T17:47:58.256Z,69.40
2019-05-11T17:50:28.298Z,68.00
2019-05-11T17:52:58.207Z,64.60
2019-05-11T17:55:28.721Z,67.30
2019-05-11T17:57:58.624Z,68.10
2019-05-11T18:00:28.539Z,69.60
2019-05-11T18:02:58.569Z,68.50
2019-05-11T18:05:28.349Z,70.20
2019-05-11T18:08:00.451Z,69.40
2019-05-11T18:10:30.494Z,67.80
2019-05-11T18:13:03.975Z,69.90
2019-05-11T18:15:32.341Z,71.80
2019-05-11T18:18:02.203Z,69.50
2019-05-11T18:20:32.695Z,71.10
2019-05-11T18:23:03.678Z,72.90
2019-05-11T18:25:33.654Z,67.90
2019-05-11T18:28:04.540Z,68.40
2019-05-11T18:30:35.100Z,71.10
2019-05-11T18:33:04.978Z,70.20
2019-05-11T18:35:35.957Z,71.10
2019-05-11T18:38:08.349Z,71.80
2019-05-11T18:40:38.166Z,71.50
2019-05-11T18:43:09.102Z,67.70
2019-05-11T18:45:39.253Z,68.70
2019-05-11T18:48:09.087Z,70.00
2019-05-11T18:50:39.495Z,70.80
2019-05-11T18:53:10.017Z,71.40
2019-05-11T18:55:41.918Z,73.30
2019-05-11T18:58:12.475Z,74.10
2019-05-11T19:00:43.944Z,72.00
2019-05-11T19:03:19.047Z,75.80
2019-05-11T19:05:48.224Z,75.60
2019-05-11T19:08:19.045Z,74.50
2019-05-11T19:10:52.935Z,77.30
2019-05-11T19:13:23.066Z,76.30
2019-05-11T19:15:53.615Z,75.70
2019-05-11T19:18:27.970Z,77.40
2019-05-11T19:20:58.315Z,77.40
2019-05-11T19:23:28.684Z,77.30
2019-05-11T19:25:59.178Z,76.60
2019-05-11T19:28:28.807Z,76.70
2019-05-11T19:30:59.332Z,74.90
2019-05-11T19:33:29.571Z,75.40
2019-05-11T19:36:00.038Z,76.50
2019-05-11T19:38:34.091Z,78.40
2019-05-11T19:41:04.553Z,74.60
2019-05-11T19:43:34.299Z,72.50
2019-05-11T19:46:04.436Z,75.50
2019-05-11T19:48:34.247Z,73.60
2019-05-11T19:51:08.181Z,75.60
2019-05-11T19:53:38.422Z,76.90
2019-05-11T19:56:08.042Z,76.10
2019-05-11T19:58:38.219Z,81.50
2019-05-11T20:01:08.987Z,76.70
2019-05-11T20:03:38.605Z,77.00
2019-05-11T20:06:08.900Z,77.80
2019-05-11T20:08:38.914Z,78.00
2019-05-11T20:11:08.647Z,77.30
2019-05-11T20:13:38.882Z,79.40
2019-05-11T20:16:08.917Z,79.90
2019-05-11T20:18:38.738Z,78.10
2019-05-11T20:21:16.553Z,77.60
2019-05-11T20:23:39.906Z,77.80
2019-05-11T20:26:11.140Z,78.50
2019-05-11T20:28:41.212Z,79.30
2019-05-11T20:31:11.689Z,79.40
2019-05-11T20:33:42.350Z,80.60
2019-05-11T20:36:13.171Z,80.70
2019-05-11T20:38:50.110Z,79.80
2019-05-11T20:41:20.065Z,76.80
2019-05-11T20:43:50.411Z,77.50
2019-05-11T20:46:21.115Z,77.40
2019-05-11T20:49:00.651Z,78.60
2019-05-11T20:51:37.980Z,77.70
2019-05-11T20:54:09.128Z,79.30
2019-05-11T20:56:40.444Z,78.60
2019-05-11T20:59:11.085Z,78.80
2019-05-11T21:01:41.191Z,80.00
2019-05-11T21:04:10.932Z,78.80
2019-05-11T21:06:41.015Z,81.40
2019-05-11T21:09:10.970Z,82.60
2019-05-11T21:11:40.895Z,81.60
2019-05-11T21:14:11.289Z,84.60
2019-05-11T21:16:41.121Z,79.60
2019-05-11T21:19:11.313Z,80.70
2019-05-11T21:21:49.891Z,82.10
2019-05-11T21:24:13.611Z,84.30
2019-05-11T21:26:43.296Z,81.50
2019-05-11T21:29:14.674Z,83.00
2019-05-11T21:31:44.769Z,80.40
2019-05-11T21:34:14.539Z,79.00
2019-05-11T21:36:44.523Z,79.60
2019-05-11T21:39:14.281Z,80.50
2019-05-11T21:41:44.359Z,81.40
2019-05-11T21:44:14.359Z,80.70
2019-05-11T21:46:44.192Z,83.70
2019-05-11T21:49:15.548Z,83.10
2019-05-11T21:51:45.355Z,82.30
2019-05-11T21:54:19.473Z,83.50
2019-05-11T21:56:50.478Z,79.70
2019-05-11T21:59:22.437Z,80.30
2019-05-11T22:01:54.189Z,81.80
2019-05-11T22:04:24.372Z,82.30
2019-05-11T22:10:46.495Z,81.60
2019-05-11T22:13:17.724Z,80.40
2019-05-11T22:15:48.624Z,81.30
2019-05-11T22:18:30.163Z,78.70
2019-05-11T22:20:52.201Z,77.70
2019-05-11T22:23:22.781Z,78.60
2019-05-11T22:25:52.492Z,80.30
2019-05-11T22:28:22.355Z,77.80
2019-05-11T22:30:51.928Z,76.30
2019-05-11T22:33:22.335Z,75.90
2019-05-11T22:35:52.450Z,75.00
2019-05-11T22:38:25.131Z,75.80
2019-05-11T22:40:58.242Z,76.90
2019-05-11T22:43:30.411Z,77.80
2019-05-11T22:46:00.029Z,78.90
2019-05-11T22:48:32.627Z,77.90
2019-05-11T22:51:02.520Z,77.90
2019-05-11T22:53:43.796Z,77.50
2019-05-11T22:56:04.311Z,79.40
2019-05-11T22:58:34.759Z,78.80
2019-05-11T23:01:04.499Z,83.30
2019-05-11T23:03:34.340Z,82.90
2019-05-11T23:06:04.379Z,85.50
2019-05-11T23:08:34.088Z,87.40
2019-05-11T23:11:04.483Z,83.90
2019-05-11T23:13:34.279Z,80.00
2019-05-11T23:16:04.334Z,81.80
2019-05-11T23:18:34.190Z,84.30
2019-05-11T23:21:04.130Z,82.70
2019-05-11T23:23:34.113Z,80.10
2019-05-11T23:26:03.883Z,82.30
2019-05-11T23:28:33.940Z,78.40
2019-05-11T23:31:04.280Z,78.80
2019-05-11T23:33:34.278Z,77.60
2019-05-11T23:36:03.847Z,77.80
2019-05-11T23:38:33.612Z,76.00
2019-05-11T23:41:04.700Z,81.90
2019-05-11T23:43:34.451Z,82.70
2019-05-11T23:46:04.322Z,81.30
2019-05-11T23:48:38.409Z,83.00
2019-05-11T23:51:08.716Z,84.20
2019-05-11T23:53:39.150Z,83.10
2019-05-11T23:56:08.678Z,80.80
2019-05-11T23:58:41.564Z,80.60
